Date,TemperatureHighF,TemperatureAvgF,TemperatureLowF,DewpointHighF,DewpointAvgF,DewpointLowF,HumidityHigh,HumidityAvg,HumidityLow,PressureMaxIn,PressureMinIn,WindSpeedMaxMPH,WindSpeedAvgMPH,GustSpeedMaxMPH,PrecipitationSumIn
2013-2-1,49.2,45.6,43.5,47.2,45.2,43.5,100,98,90,30.41,30.33,1,0,4,0.04
2013-2-2,44.0,40.5,37.3,43.5,40.0,37.0,100,98,94,30.39,30.25,2,0,5,0.00
2013-2-3,48.6,42.6,35.5,45.1,41.5,35.5,100,96,84,30.31,30.21,3,0,7,0.15
2013-2-4,50.7,46.1,43.1,47.0,44.1,42.5,100,93,80,30.22,29.88,3,0,7,0.00
2013-2-5,50.6,46.1,43.5,46.1,43.8,41.9,99,92,78,29.96,29.83,5,1,16,0.41
2013-2-6,50.8,44.5,41.3,44.0,42.2,41.2,100,92,73,30.07,29.80,5,1,14,0.18
2013-2-7,48.8,41.1,30.8,43.3,37.7,30.4,100,88,62,30.19,29.80,6,1,14,0.18
2013-2-8,44.5,36.6,29.6,39.8,34.9,29.6,100,94,77,30.32,30.20,1,0,4,0.00
2013-2-9,44.1,40.5,37.4,41.9,39.5,36.6,100,96,89,30.34,30.27,1,0,2,0.03
2013-2-10,46.0,40.8,36.1,41.0,38.6,35.8,100,92,74,30.38,30.32,3,0,6,0.00
2013-2-11,48.0,42.5,37.6,41.4,39.5,37.1,99,90,72,30.36,30.32,3,0,9,0.00
2013-2-12,49.2,46.4,42.1,47.5,45.3,40.8,99,96,89,30.41,30.31,6,1,20,0.17
2013-2-13,48.9,46.1,43.1,46.1,43.2,41.5,98,90,81,30.50,30.30,3,0,12,0.04
2013-2-14,50.5,46.0,42.3,46.3,43.8,41.3,99,92,82,30.56,30.49,3,0,10,0.07
2013-2-15,52.2,43.4,37.9,46.6,42.1,37.9,100,95,77,30.55,30.19,2,0,5,0.00
2013-2-16,50.4,44.1,36.3,44.7,41.3,36.3,100,90,69,30.21,30.13,6,1,15,0.05
2013-2-17,46.3,42.2,38.5,40.9,38.0,36.4,97,85,70,30.25,30.13,3,0,13,0.04
2013-2-18,47.2,40.0,34.0,39.4,37.0,33.3,100,90,68,30.13,29.77,2,0,7,0.01
2013-2-19,50.4,38.9,32.4,38.1,35.2,31.8,100,88,59,30.02,29.75,3,0,12,0.00
2013-2-20,44.7,38.2,31.7,41.0,36.0,30.9,99,92,70,30.06,30.00,3,0,12,0.06
2013-2-21,43.4,41.0,36.4,41.0,39.3,36.1,100,94,89,30.09,30.02,5,1,14,0.14
2013-2-22,44.2,42.0,39.2,42.6,39.9,35.9,96,92,87,30.07,29.73,9,2,20,0.51
2013-2-23,48.8,41.8,38.8,41.1,38.5,36.0,98,88,69,30.39,29.92,5,1,12,0.10
2013-2-24,47.6,43.8,39.7,41.2,38.4,36.2,93,81,67,30.40,29.96,5,1,10,0.01
2013-2-25,50.0,43.7,39.5,41.3,37.7,31.5,95,80,49,30.31,29.91,7,2,17,0.21
2013-2-26,48.6,43.7,39.0,38.5,34.8,31.3,91,72,52,30.36,30.20,5,1,12,0.00
2013-2-27,50.6,44.3,40.0,45.2,41.8,39.0,99,91,73,30.32,30.20,3,0,7,0.36
2013-2-28,53.0,47.3,42.2,51.2,46.7,42.2,100,98,93,30.33,30.20,5,1,10,0.39